Time;durP1;ratioP1;P1;durP2;ratioP2;P2;SDS_P1;SDS_P2;PMS_P1;PMS_P2;Temp;Humidity;BMP_temperature;BMP_pressure;BME280_temperature;BME280_humidity;BME280_pressure;Samples;Min_cycle;Max_cycle;Signal;HPM_P1;HPM_P2
2024/01/01 00:00:03;;;;;;;4.45;4.25;;;4.40;99.90;;;;;;6269904;22;20182;-83
2024/01/01 00:02:29;;;;;;;5.40;5.10;;;4.40;99.90;;;;;;6242303;23;20187;-84
2024/01/01 00:04:58;;;;;;;6.00;5.55;;;4.50;99.90;;;;;;6264589;22;20247;-85
2024/01/01 00:07:25;;;;;;;4.30;4.03;;;4.50;99.90;;;;;;6259981;23;20175;-85
2024/01/01 00:09:53;;;;;;;2.15;2.05;;;4.40;99.90;;;;;;6252916;23;20738;-83
2024/01/01 00:12:23;;;;;;;3.63;3.35;;;4.40;99.90;;;;;;6254057;23;20213;-85
2024/01/01 00:14:51;;;;;;;5.93;3.25;;;4.40;99.90;;;;;;6228563;23;20199;-83
2024/01/01 00:17:18;;;;;;;3.05;2.78;;;4.40;99.90;;;;;;6250191;23;20222;-83
2024/01/01 00:19:46;;;;;;;4.03;3.70;;;4.40;99.90;;;;;;6248929;23;20179;-82
2024/01/01 00:22:14;;;;;;;5.32;4.80;;;4.40;99.90;;;;;;6197495;23;20758;-82
2024/01/01 00:24:41;;;;;;;3.20;3.00;;;4.40;99.90;;;;;;6251123;23;20235;-83
2024/01/01 00:27:08;;;;;;;4.25;4.05;;;4.40;99.90;;;;;;6249139;23;20565;-81
2024/01/01 00:29:35;;;;;;;10.00;5.13;;;4.30;99.90;;;;;;6248831;23;20203;-82
2024/01/01 00:32:05;;;;;;;2.10;1.92;;;4.30;99.90;;;;;;6247519;23;20172;-82
2024/01/01 00:34:32;;;;;;;4.90;3.85;;;4.30;99.90;;;;;;6247500;23;20436;-82
2024/01/01 00:36:59;;;;;;;3.95;3.67;;;4.40;99.90;;;;;;6248288;23;20406;-83
2024/01/01 00:39:26;;;;;;;5.45;3.55;;;4.30;99.90;;;;;;6247527;23;20419;-81
2024/01/01 00:41:54;;;;;;;4.93;4.53;;;4.30;99.90;;;;;;6249038;23;20586;-83
2024/01/01 00:44:26;;;;;;;5.75;3.10;;;4.30;99.90;;;;;;6249941;23;20172;-81
2024/01/01 00:46:54;;;;;;;3.75;3.63;;;4.30;99.90;;;;;;6249011;23;20262;-81
2024/01/01 00:49:21;;;;;;;2.20;2.15;;;4.40;99.90;;;;;;6248341;23;20164;-82
2024/01/01 00:51:49;;;;;;;3.28;3.08;;;4.40;99.90;;;;;;6248939;23;20519;-82
2024/01/01 00:54:17;;;;;;;2.70;2.50;;;4.50;99.90;;;;;;6248685;23;20229;-82
2024/01/01 00:56:44;;;;;;;5.43;5.03;;;4.50;99.90;;;;;;6251125;23;20272;-81
2024/01/01 00:59:11;;;;;;;2.38;2.28;;;4.40;99.90;;;;;;6248795;23;20214;-80
2024/01/01 01:01:38;;;;;;;4.15;3.85;;;4.50;99.90;;;;;;6253839;23;20353;-82
2024/01/01 01:04:06;;;;;;;4.10;3.80;;;4.50;99.90;;;;;;6254782;23;20176;-82
2024/01/01 01:06:32;;;;;;;2.30;2.20;;;4.50;99.90;;;;;;6254585;23;20575;-81
2024/01/01 01:09:00;;;;;;;8.73;4.60;;;4.50;99.90;;;;;;6254535;23;20180;-81
2024/01/01 01:11:27;;;;;;;3.40;3.15;;;4.50;99.90;;;;;;6255090;23;20182;-81
2024/01/01 01:13:56;;;;;;;5.90;4.72;;;4.60;99.90;;;;;;6254910;23;20225;-81
2024/01/01 01:16:23;;;;;;;1.65;1.65;;;4.60;99.90;;;;;;6254161;23;20520;-81
2024/01/01 01:18:50;;;;;;;1.30;1.30;;;4.50;99.90;;;;;;6228244;23;20195;-82
2024/01/01 01:21:17;;;;;;;1.80;1.70;;;4.60;99.90;;;;;;6255342;23;20182;-82
2024/01/01 01:23:45;;;;;;;5.95;1.63;;;4.60;99.90;;;;;;6255113;23;20244;-83
2024/01/01 01:26:11;;;;;;;4.82;4.55;;;4.70;99.90;;;;;;6255288;23;20195;-82
2024/01/01 01:28:39;;;;;;;1.35;1.00;;;4.70;99.90;;;;;;6254771;23;20172;-83
2024/01/01 01:31:06;;;;;;;3.90;2.88;;;4.70;99.90;;;;;;6254665;23;20416;-83
2024/01/01 01:33:32;;;;;;;1.63;1.52;;;4.70;99.90;;;;;;6254715;23;20156;-82
2024/01/01 01:36:00;;;;;;;2.30;2.10;;;4.70;99.90;;;;;;6255875;23;20176;-82
2024/01/01 01:38:27;;;;;;;1.70;1.60;;;4.80;99.90;;;;;;6269860;22;20175;-84
2024/01/01 01:40:55;;;;;;;2.90;2.80;;;4.80;99.90;;;;;;6271390;23;20139;-84
2024/01/01 01:43:23;;;;;;;4.20;3.80;;;5.00;99.90;;;;;;6271240;22;20206;-85
2024/01/01 01:45:51;;;;;;;1.92;1.83;;;5.10;99.90;;;;;;6260650;23;20202;-85
2024/01/01 01:48:18;;;;;;;1.48;1.38;;;5.00;99.90;;;;;;6233307;23;20195;-83
2024/01/01 01:50:46;;;;;;;0.90;0.90;;;4.90;99.90;;;;;;6229679;23;20172;-84
2024/01/01 01:53:15;;;;;;;2.50;2.35;;;5.00;99.90;;;;;;6228952;23;20172;-84
2024/01/01 01:55:45;;;;;;;3.53;3.33;;;4.90;99.90;;;;;;6229266;23;20180;-82
2024/01/01 01:58:12;;;;;;;8.90;4.10;;;4.80;99.90;;;;;;6256590;23;20384;-84
2024/01/01 02:00:39;;;;;;;1.63;1.60;;;4.80;99.90;;;;;;6255747;23;20175;-82
2024/01/01 02:03:08;;;;;;;1.48;1.48;;;4.80;99.90;;;;;;6255488;23;20194;-83
2024/01/01 02:05:35;;;;;;;1.13;1.13;;;4.90;99.90;;;;;;6254791;23;20222;-83
2024/01/01 02:08:03;;;;;;;0.95;0.95;;;4.80;99.90;;;;;;6254953;23;20179;-84
2024/01/01 02:10:31;;;;;;;2.42;2.33;;;4.80;99.90;;;;;;6254437;23;20207;-84
2024/01/01 02:12:59;;;;;;;7.93;3.17;;;4.80;99.90;;;;;;6265669;22;20184;-84
2024/01/01 02:15:26;;;;;;;2.00;1.90;;;4.80;99.90;;;;;;6255544;22;20183;-83
2024/01/01 02:17:54;;;;;;;6.13;1.63;;;4.90;99.90;;;;;;6253315;23;20202;-81
2024/01/01 02:20:21;;;;;;;0.65;0.65;;;4.80;99.90;;;;;;6262724;22;20191;-81
2024/01/01 02:22:48;;;;;;;10.85;2.60;;;4.80;99.90;;;;;;6273210;22;20223;-82
2024/01/01 02:25:16;;;;;;;0.73;0.73;;;4.70;99.90;;;;;;6273056;22;20243;-81
2024/01/01 02:27:43;;;;;;;0.60;0.60;;;4.70;99.90;;;;;;6246885;22;20218;-81
2024/01/01 02:30:12;;;;;;;2.05;1.95;;;4.80;99.90;;;;;;6262528;22;20348;-81
2024/01/01 02:32:40;;;;;;;1.45;1.38;;;4.80;99.90;;;;;;6255816;23;20167;-81
2024/01/01 02:35:08;;;;;;;0.95;0.95;;;4.90;99.90;;;;;;6255031;23;20179;-80
2024/01/01 02:37:36;;;;;;;1.05;1.05;;;4.90;99.90;;;;;;6228485;23;20181;-80
2024/01/01 02:40:05;;;;;;;0.60;0.60;;;4.80;99.90;;;;;;6254274;23;20184;-81
2024/01/01 02:42:32;;;;;;;2.25;2.15;;;4.80;99.90;;;;;;6254261;23;20183;-81
2024/01/01 02:44:59;;;;;;;1.15;1.15;;;4.70;99.90;;;;;;6254576;23;20179;-80
2024/01/01 02:47:26;;;;;;;1.38;1.20;;;4.70;99.90;;;;;;6253892;23;20227;-83
2024/01/01 02:49:55;;;;;;;2.90;2.72;;;4.70;99.90;;;;;;6253778;23;20171;-81
2024/01/01 02:52:22;;;;;;;0.77;0.77;;;4.80;99.90;;;;;;6253767;23;20243;-80
2024/01/01 02:54:49;;;;;;;0.50;0.50;;;4.80;99.90;;;;;;6253723;23;20194;-79
2024/01/01 02:57:16;;;;;;;0.60;0.60;;;4.80;99.90;;;;;;6253304;23;20182;-81
2024/01/01 02:59:43;;;;;;;0.70;0.70;;;4.80;99.90;;;;;;6253867;23;20176;-80
2024/01/01 03:02:12;;;;;;;1.25;1.25;;;4.80;99.90;;;;;;6252905;23;20611;-81
2024/01/01 03:04:38;;;;;;;1.63;1.52;;;4.80;99.90;;;;;;6252930;23;20175;-79
2024/01/01 03:07:06;;;;;;;0.50;0.50;;;4.60;99.90;;;;;;6253202;23;20203;-81
2024/01/01 03:09:33;;;;;;;1.83;1.77;;;4.60;99.90;;;;;;6253041;23;20203;-81
2024/01/01 03:11:59;;;;;;;3.10;2.90;;;4.60;99.90;;;;;;6253272;23;20178;-81
2024/01/01 03:14:26;;;;;;;2.53;2.42;;;4.60;99.90;;;;;;6252910;23;20611;-80
2024/01/01 03:16:53;;;;;;;0.60;0.60;;;4.60;99.90;;;;;;6252800;23;20195;-79
2024/01/01 03:19:21;;;;;;;1.05;1.05;;;4.60;99.90;;;;;;6253431;23;20247;-80
2024/01/01 03:21:48;;;;;;;0.85;0.85;;;4.70;99.90;;;;;;6253622;23;20246;-79
2024/01/01 03:24:15;;;;;;;1.65;1.65;;;4.80;99.90;;;;;;6253635;23;20587;-80
2024/01/01 03:26:42;;;;;;;1.67;1.63;;;4.70;99.90;;;;;;6253319;23;20199;-82
2024/01/01 03:29:09;;;;;;;1.08;1.08;;;4.80;99.90;;;;;;6254164;23;20191;-82
2024/01/01 03:31:36;;;;;;;1.88;1.77;;;4.70;99.90;;;;;;6253360;23;20218;-81
2024/01/01 03:34:03;;;;;;;0.80;0.80;;;4.80;99.90;;;;;;6253406;23;20484;-81
2024/01/01 03:36:30;;;;;;;4.75;1.45;;;4.60;99.90;;;;;;6253364;23;20186;-82
2024/01/01 03:38:57;;;;;;;1.75;1.65;;;4.60;99.90;;;;;;6252886;23;20194;-82
2024/01/01 03:41:26;;;;;;;1.67;1.63;;;4.60;99.90;;;;;;6253456;23;20203;-79
2024/01/01 03:43:53;;;;;;;1.70;1.60;;;4.60;99.90;;;;;;6253452;23;20176;-79
2024/01/01 03:46:20;;;;;;;2.05;1.95;;;4.70;99.90;;;;;;6253070;23;20199;-80
2024/01/01 03:48:48;;;;;;;0.40;0.40;;;4.70;99.90;;;;;;6253744;23;20230;-79
2024/01/01 03:51:15;;;;;;;1.65;1.60;;;4.80;99.90;;;;;;6253222;23;20203;-79
2024/01/01 03:53:42;;;;;;;0.40;0.40;;;4.80;99.90;;;;;;6254182;23;20413;-79
2024/01/01 03:56:09;;;;;;;0.82;0.82;;;4.90;99.90;;;;;;6255219;23;20175;-80
2024/01/01 03:58:36;;;;;;;0.60;0.60;;;4.80;99.90;;;;;;6255295;23;20185;-79
2024/01/01 04:01:10;;;;;;;1.48;1.38;;;4.90;99.90;;;;;;6228469;23;20251;-80
2024/01/01 04:03:37;;;;;;;0.60;0.60;;;4.90;99.90;;;;;;6255042;23;20164;-80
2024/01/01 04:06:04;;;;;;;3.92;3.72;;;4.90;99.90;;;;;;6255208;23;20238;-80
2024/01/01 04:08:31;;;;;;;1.55;1.52;;;4.90;99.90;;;;;;6254627;23;20171;-80
2024/01/01 04:10:59;;;;;;;0.80;0.80;;;4.90;99.90;;;;;;6254609;23;20175;-80
2024/01/01 04:13:26;;;;;;;1.58;1.48;;;4.90;99.90;;;;;;6254773;23;20172;-80
2024/01/01 04:15:53;;;;;;;0.60;0.60;;;4.90;99.90;;;;;;6256106;23;20235;-80
2024/01/01 04:18:20;;;;;;;0.82;0.82;;;4.80;99.90;;;;;;6231342;23;20178;-81
2024/01/01 04:20:47;;;;;;;0.70;0.70;;;4.80;99.90;;;;;;6256285;23;20700;-80
2024/01/01 04:23:14;;;;;;;1.80;1.70;;;4.80;99.90;;;;;;6255722;23;20167;-80
2024/01/01 04:25:41;;;;;;;0.40;0.40;;;4.80;99.90;;;;;;6255771;23;20199;-82
2024/01/01 04:28:07;;;;;;;7.32;4.55;;;4.70;99.90;;;;;;6228292;23;20203;-82
2024/01/01 04:30:35;;;;;;;1.02;1.02;;;4.80;99.90;;;;;;6255274;23;20191;-81
2024/01/01 04:33:02;;;;;;;0.98;0.98;;;4.80;99.90;;;;;;6255844;23;20174;-82
2024/01/01 04:35:30;;;;;;;1.55;1.45;;;4.90;99.90;;;;;;6254892;23;20171;-81
2024/01/01 04:37:57;;;;;;;1.80;1.70;;;4.90;99.90;;;;;;6254202;23;20538;-80
2024/01/01 04:40:24;;;;;;;2.30;1.67;;;4.80;99.90;;;;;;6254167;23;20187;-81
2024/01/01 04:42:53;;;;;;;2.38;2.17;;;4.70;99.90;;;;;;6254781;23;20203;-82
2024/01/01 04:45:20;;;;;;;0.88;0.88;;;4.70;99.90;;;;;;6254473;23;20221;-82
2024/01/01 04:47:47;;;;;;;2.65;2.38;;;4.70;99.90;;;;;;6227916;23;20530;-80
2024/01/01 04:50:14;;;;;;;3.25;3.03;;;4.80;99.90;;;;;;6254908;23;20175;-82
2024/01/01 04:52:43;;;;;;;0.80;0.80;;;4.90;99.90;;;;;;6254645;23;20198;-81
2024/01/01 04:55:10;;;;;;;1.88;1.77;;;4.90;99.90;;;;;;6254601;23;20180;-80
2024/01/01 04:57:37;;;;;;;3.80;1.65;;;4.90;99.90;;;;;;6227519;23;20210;-81
2024/01/01 05:00:05;;;;;;;1.38;1.35;;;4.80;99.90;;;;;;6254808;23;20183;-84
2024/01/01 05:02:32;;;;;;;0.68;0.68;;;4.90;99.90;;;;;;6255495;23;20484;-80
2024/01/01 05:04:59;;;;;;;3.97;3.78;;;4.80;99.90;;;;;;6254729;23;20540;-80
2024/01/01 05:07:26;;;;;;;0.70;0.70;;;4.80;99.90;;;;;;6255336;23;20251;-81
2024/01/01 05:09:53;;;;;;;3.22;1.20;;;4.80;99.90;;;;;;6255766;23;20179;-81
2024/01/01 05:12:20;;;;;;;1.63;1.52;;;4.90;99.90;;;;;;6254634;23;20171;-81
2024/01/01 05:14:47;;;;;;;3.28;2.97;;;4.90;99.90;;;;;;6255764;23;20235;-81
2024/01/01 05:17:15;;;;;;;1.55;1.45;;;4.80;99.90;;;;;;6255459;23;20176;-81
2024/01/01 05:19:42;;;;;;;0.60;0.60;;;4.70;99.90;;;;;;6254866;23;20376;-81
2024/01/01 05:22:10;;;;;;;0.88;0.88;;;4.70;99.90;;;;;;6254012;23;20187;-80
2024/01/01 05:24:36;;;;;;;2.35;2.25;;;4.60;99.90;;;;;;6254183;23;20598;-80
2024/01/01 05:27:07;;;;;;;0.90;0.90;;;4.60;99.90;;;;;;6254743;23;20372;-82
2024/01/01 05:29:34;;;;;;;0.80;0.80;;;4.60;99.90;;;;;;6228438;23;20171;-82
2024/01/01 05:32:01;;;;;;;3.15;0.90;;;4.60;99.90;;;;;;6254460;23;20171;-82
2024/01/01 05:34:29;;;;;;;3.67;3.42;;;4.70;99.90;;;;;;6254457;23;20187;-81
2024/01/01 05:36:56;;;;;;;1.48;1.48;;;4.70;99.90;;;;;;6228518;23;20194;-81
2024/01/01 05:39:23;;;;;;;0.70;0.70;;;4.70;99.90;;;;;;6253977;23;20199;-82
2024/01/01 05:41:50;;;;;;;1.52;1.52;;;4.70;99.90;;;;;;6254128;23;20211;-82
2024/01/01 05:44:17;;;;;;;2.42;2.28;;;4.70;99.90;;;;;;6254095;23;20243;-81
2024/01/01 05:46:44;;;;;;;4.03;2.28;;;4.70;99.90;;;;;;6254777;23;20234;-82
2024/01/01 05:49:10;;;;;;;1.30;1.20;;;4.70;99.90;;;;;;6254446;23;20187;-79
2024/01/01 05:51:37;;;;;;;3.15;2.05;;;4.80;99.90;;;;;;6227118;23;20181;-80
2024/01/01 05:54:04;;;;;;;4.22;2.70;;;4.80;99.90;;;;;;6253834;23;20234;-79
2024/01/01 05:56:31;;;;;;;0.52;0.52;;;4.90;99.90;;;;;;6254141;23;20178;-81
2024/01/01 05:58:58;;;;;;;2.28;2.17;;;4.90;99.90;;;;;;6254958;23;20195;-79
2024/01/01 06:01:26;;;;;;;1.58;1.48;;;4.80;99.90;;;;;;6253876;23;20235;-80
2024/01/01 06:03:53;;;;;;;0.50;0.50;;;4.70;99.90;;;;;;6227318;23;20539;-81
2024/01/01 06:06:22;;;;;;;0.88;0.88;;;4.80;99.90;;;;;;6253657;23;20182;-81
2024/01/01 06:08:49;;;;;;;2.58;2.47;;;4.80;99.90;;;;;;6254189;23;20360;-81
2024/01/01 06:11:16;;;;;;;1.08;1.08;;;4.70;99.90;;;;;;6254285;23;20238;-81
2024/01/01 06:13:45;;;;;;;0.70;0.70;;;4.70;99.90;;;;;;6254259;23;20172;-81
2024/01/01 06:16:14;;;;;;;1.20;1.20;;;4.70;99.90;;;;;;6253268;23;20172;-81
2024/01/01 06:18:41;;;;;;;2.40;2.30;;;4.70;99.90;;;;;;6226885;23;20187;-82
2024/01/01 06:21:07;;;;;;;0.50;0.50;;;4.70;99.90;;;;;;6254407;23;20179;-80
2024/01/01 06:23:35;;;;;;;0.70;0.70;;;4.70;99.90;;;;;;6253908;23;20199;-80
2024/01/01 06:26:02;;;;;;;1.15;1.10;;;4.80;99.90;;;;;;6257582;23;20195;-80
2024/01/01 06:28:29;;;;;;;0.98;0.98;;;4.90;99.90;;;;;;6271030;22;20200;-80
2024/01/01 06:31:00;;;;;;;0.40;0.40;;;4.60;99.90;;;;;;6273524;22;20147;-80
2024/01/01 06:33:26;;;;;;;3.30;3.15;;;4.50;99.90;;;;;;6274373;22;20167;-81
2024/01/01 06:35:54;;;;;;;0.60;0.60;;;4.60;99.90;;;;;;6262519;23;20176;-80
2024/01/01 06:38:21;;;;;;;13.88;2.45;;;4.50;99.90;;;;;;6253608;23;20183;-80
2024/01/01 06:40:48;;;;;;;2.03;1.92;;;4.50;99.90;;;;;;6254145;23;20171;-80
2024/01/01 06:43:15;;;;;;;1.35;1.35;;;4.50;99.90;;;;;;6253799;23;20214;-80
2024/01/01 06:45:42;;;;;;;0.63;0.63;;;4.50;99.90;;;;;;6253313;23;20527;-80
2024/01/01 06:48:11;;;;;;;0.60;0.60;;;4.50;99.90;;;;;;6229392;23;20215;-82
2024/01/01 06:50:38;;;;;;;1.42;1.40;;;4.40;99.90;;;;;;6253694;23;20156;-81
2024/01/01 06:53:06;;;;;;;0.80;0.80;;;4.40;99.90;;;;;;6254368;23;20369;-80
2024/01/01 06:55:33;;;;;;;2.10;2.00;;;4.50;99.90;;;;;;6263328;22;20167;-81
2024/01/01 06:58:00;;;;;;;1.33;1.33;;;4.50;99.90;;;;;;6273889;22;20186;-82
2024/01/01 07:00:27;;;;;;;1.45;1.45;;;4.60;99.90;;;;;;6273793;22;20175;-82
2024/01/01 07:02:59;;;;;;;2.63;2.20;;;4.50;99.90;;;;;;6272948;22;20180;-81
2024/01/01 07:05:28;;;;;;;1.30;1.20;;;4.60;99.90;;;;;;6260324;22;20197;-82
2024/01/01 07:07:56;;;;;;;0.60;0.60;;;4.50;99.90;;;;;;6255318;23;20207;-81
2024/01/01 07:10:23;;;;;;;1.98;1.88;;;4.50;99.90;;;;;;6228938;23;20171;-83
2024/01/01 07:12:50;;;;;;;0.40;0.40;;;4.50;99.90;;;;;;6254780;23;20171;-83
2024/01/01 07:15:17;;;;;;;2.08;1.98;;;4.50;99.90;;;;;;6254581;23;20175;-81
2024/01/01 07:17:44;;;;;;;1.65;1.58;;;4.50;99.90;;;;;;6254202;23;20246;-82
2024/01/01 07:20:12;;;;;;;2.72;2.55;;;4.50;99.90;;;;;;6254304;23;20176;-82
2024/01/01 07:22:40;;;;;;;3.10;2.80;;;4.60;99.90;;;;;;6253715;23;20175;-83
2024/01/01 07:25:09;;;;;;;3.08;2.35;;;4.50;99.90;;;;;;6254007;23;20184;-83
2024/01/01 07:27:36;;;;;;;1.35;1.30;;;4.50;99.90;;;;;;6253994;23;20202;-84
2024/01/01 07:30:04;;;;;;;3.15;1.60;;;4.50;99.90;;;;;;6255450;23;20180;-83
2024/01/01 07:32:31;;;;;;;0.88;0.88;;;4.60;99.90;;;;;;6255739;23;20172;-80
2024/01/01 07:34:59;;;;;;;0.75;0.75;;;4.60;99.90;;;;;;6255528;23;20176;-82
2024/01/01 07:37:26;;;;;;;0.63;0.63;;;4.60;99.90;;;;;;6256113;23;20176;-82
2024/01/01 07:39:53;;;;;;;4.68;2.45;;;4.60;99.90;;;;;;6259834;23;20191;-82
2024/01/01 07:42:20;;;;;;;2.22;2.13;;;4.60;99.90;;;;;;6275214;23;20168;-81
2024/01/01 07:44:48;;;;;;;3.22;2.88;;;4.70;99.90;;;;;;6276169;23;20164;-82
2024/01/01 07:47:16;;;;;;;0.98;0.98;;;4.70;99.90;;;;;;6271479;22;20258;-82
2024/01/01 07:49:44;;;;;;;5.82;4.03;;;4.80;99.90;;;;;;6257256;23;20194;-82
2024/01/01 07:52:15;;;;;;;1.63;1.55;;;4.80;99.90;;;;;;6255676;23;20179;-82
2024/01/01 07:54:41;;;;;;;0.70;0.70;;;4.80;99.90;;;;;;6255773;23;20400;-80
2024/01/01 07:57:09;;;;;;;1.77;1.20;;;4.90;99.90;;;;;;6255334;23;20582;-82
2024/01/01 07:59:36;;;;;;;0.95;0.95;;;4.90;99.90;;;;;;6255052;23;20176;-79
2024/01/01 08:02:03;;;;;;;0.90;0.90;;;5.00;99.90;;;;;;6254294;23;20203;-81
2024/01/01 08:04:30;;;;;;;1.67;1.23;;;5.00;99.90;;;;;;6228816;23;20176;-81
2024/01/01 08:06:57;;;;;;;1.08;1.02;;;5.00;99.90;;;;;;6254661;23;20240;-80
2024/01/01 08:09:24;;;;;;;1.83;1.73;;;5.10;99.90;;;;;;6255132;23;20363;-80
2024/01/01 08:11:51;;;;;;;0.50;0.50;;;5.10;99.90;;;;;;6255362;23;20206;-81
2024/01/01 08:14:18;;;;;;;0.75;0.75;;;5.10;99.90;;;;;;6255640;23;20178;-79
2024/01/01 08:16:45;;;;;;;0.40;0.40;;;5.20;99.90;;;;;;6255531;23;20200;-81
2024/01/01 08:19:12;;;;;;;0.95;0.95;;;5.20;99.90;;;;;;6255711;23;20176;-81
2024/01/01 08:21:39;;;;;;;2.25;2.15;;;5.20;99.90;;;;;;6255415;23;20522;-81
2024/01/01 08:24:06;;;;;;;1.98;1.88;;;5.20;99.90;;;;;;6255142;23;20226;-81
2024/01/01 08:26:33;;;;;;;1.02;1.02;;;5.30;99.90;;;;;;6255084;23;20182;-82
2024/01/01 08:29:01;;;;;;;0.88;0.88;;;5.30;99.90;;;;;;6255778;23;20192;-80
2024/01/01 08:31:28;;;;;;;2.67;2.55;;;5.30;99.90;;;;;;6228331;23;20230;-80
2024/01/01 08:33:55;;;;;;;0.57;0.57;;;5.40;99.90;;;;;;6254410;23;20172;-81
2024/01/01 08:36:23;;;;;;;0.85;0.85;;;5.40;99.90;;;;;;6254898;23;20369;-81
2024/01/01 08:38:50;;;;;;;1.02;1.02;;;5.40;99.90;;;;;;6254609;23;20184;-80
2024/01/01 08:41:17;;;;;;;0.60;0.60;;;5.50;99.90;;;;;;6254908;23;20629;-81
2024/01/01 08:43:46;;;;;;;1.25;1.25;;;5.50;99.90;;;;;;6228601;23;20283;-81
2024/01/01 08:46:14;;;;;;;1.35;1.25;;;5.50;99.90;;;;;;6254931;23;20227;-82
2024/01/01 08:48:42;;;;;;;1.27;1.27;;;5.60;99.90;;;;;;6254487;23;20259;-80
2024/01/01 08:51:09;;;;;;;3.70;3.35;;;5.70;99.90;;;;;;6254556;23;20177;-80
2024/01/01 08:53:36;;;;;;;3.55;2.08;;;5.60;99.90;;;;;;6254394;23;20172;-83
2024/01/01 08:56:04;;;;;;;2.25;2.15;;;5.70;99.90;;;;;;6228059;23;20172;-80
2024/01/01 08:58:31;;;;;;;2.30;2.20;;;5.60;99.90;;;;;;6254754;23;20230;-82
2024/01/01 09:00:58;;;;;;;2.75;1.40;;;5.70;99.90;;;;;;6254663;23;20175;-82
2024/01/01 09:03:27;;;;;;;4.45;4.05;;;5.70;99.90;;;;;;6254848;23;20230;-81
2024/01/01 09:05:56;;;;;;;1.88;1.77;;;5.70;99.90;;;;;;6254755;23;20476;-80
2024/01/01 09:08:24;;;;;;;1.80;1.70;;;5.80;99.90;;;;;;6228652;23;20195;-81
2024/01/01 09:10:51;;;;;;;2.38;2.28;;;5.90;99.90;;;;;;6254596;23;20617;-82
2024/01/01 09:13:18;;;;;;;1.50;1.40;;;5.80;99.90;;;;;;6255271;23;20218;-81
2024/01/01 09:15:45;;;;;;;2.85;1.80;;;5.80;99.90;;;;;;6254446;23;20551;-80
2024/01/01 09:18:12;;;;;;;4.45;4.10;;;5.90;99.90;;;;;;6254741;23;20183;-81
2024/01/01 09:20:41;;;;;;;1.02;1.02;;;5.90;99.90;;;;;;6254697;23;20228;-81
2024/01/01 09:23:09;;;;;;;2.10;1.95;;;6.00;99.90;;;;;;6227968;23;20222;-80
2024/01/01 09:25:40;;;;;;;1.15;1.10;;;6.00;99.90;;;;;;6254337;23;20177;-81
2024/01/01 09:28:07;;;;;;;5.15;4.82;;;6.10;99.90;;;;;;6254653;23;20214;-81
2024/01/01 09:30:35;;;;;;;2.45;2.35;;;6.10;99.90;;;;;;6254773;23;20176;-81
2024/01/01 09:33:02;;;;;;;1.10;1.10;;;6.20;99.90;;;;;;6254768;23;20263;-80
2024/01/01 09:35:29;;;;;;;1.25;1.25;;;6.20;99.90;;;;;;6255094;23;20199;-80
2024/01/01 09:37:58;;;;;;;1.17;1.17;;;6.30;99.90;;;;;;6254443;23;20225;-82
2024/01/01 09:40:25;;;;;;;1.73;1.67;;;6.30;99.90;;;;;;6227867;23;20469;-82
2024/01/01 09:42:52;;;;;;;1.77;1.67;;;6.30;99.90;;;;;;6254145;23;20433;-81
2024/01/01 09:45:19;;;;;;;1.70;1.63;;;6.30;99.90;;;;;;6254234;23;20182;-81
2024/01/01 09:47:47;;;;;;;1.73;1.67;;;6.40;99.90;;;;;;6254199;23;20219;-81
2024/01/01 09:50:14;;;;;;;2.88;2.78;;;6.40;99.90;;;;;;6254729;23;20234;-80
2024/01/01 09:52:41;;;;;;;0.80;0.80;;;6.40;99.90;;;;;;6254412;23;20171;-82
2024/01/01 09:55:08;;;;;;;1.35;1.17;;;6.50;99.90;;;;;;6254751;23;20171;-80
2024/01/01 09:57:35;;;;;;;2.88;2.78;;;6.50;99.90;;;;;;6254777;23;20179;-80
2024/01/01 10:00:05;;;;;;;1.20;1.20;;;6.50;99.90;;;;;;6228228;23;20396;-82
2024/01/01 10:02:34;;;;;;;0.70;0.70;;;6.60;99.90;;;;;;6254751;23;20199;-80
2024/01/01 10:05:15;;;;;;;1.77;1.45;;;6.70;99.90;;;;;;6253909;23;20213;-81
2024/01/01 10:07:44;;;;;;;0.70;0.70;;;6.70;99.90;;;;;;6253630;23;20191;-80
2024/01/01 10:10:12;;;;;;;3.70;3.13;;;6.80;99.90;;;;;;6255044;23;20394;-80
2024/01/01 10:12:45;;;;;;;1.15;1.15;;;6.80;99.90;;;;;;6254052;23;20195;-81
2024/01/01 10:15:12;;;;;;;3.50;3.20;;;6.90;99.90;;;;;;6249568;23;20512;-81
2024/01/01 10:17:39;;;;;;;1.30;1.30;;;7.00;99.90;;;;;;6248852;23;20214;-82
2024/01/01 10:20:07;;;;;;;4.78;3.50;;;7.00;99.90;;;;;;6248757;23;20220;-79
2024/01/01 10:22:34;;;;;;;1.58;1.58;;;7.00;99.90;;;;;;6249396;23;20187;-82
2024/01/01 10:25:12;;;;;;;0.63;0.63;;;7.20;99.90;;;;;;6248367;23;20206;-82
2024/01/01 10:27:41;;;;;;;0.80;0.80;;;7.30;99.90;;;;;;6247599;23;20185;-82
2024/01/01 10:30:09;;;;;;;2.38;2.25;;;7.30;99.90;;;;;;6248330;23;20200;-80
2024/01/01 10:32:37;;;;;;;1.50;1.40;;;7.30;99.90;;;;;;6253020;23;20739;-82
2024/01/01 10:35:05;;;;;;;1.92;1.85;;;7.40;99.90;;;;;;6253571;23;20218;-81
2024/01/01 10:37:33;;;;;;;5.63;4.85;;;7.30;99.90;;;;;;6253066;23;20179;-81
2024/01/01 10:40:05;;;;;;;1.70;1.60;;;7.40;99.90;;;;;;6226403;23;20222;-79
2024/01/01 10:42:36;;;;;;;3.50;3.30;;;7.40;99.90;;;;;;6253043;23;20182;-82
2024/01/01 10:45:04;;;;;;;2.25;2.15;;;7.30;99.90;;;;;;6251150;23;20170;-82
2024/01/01 10:47:31;;;;;;;0.60;0.60;;;7.40;99.90;;;;;;6253415;23;20389;-83
2024/01/01 10:50:28;;;;;;;4.10;3.80;;;7.40;99.90;;;;;;6227600;23;20217;-81
2024/01/01 10:53:24;;;;;;;0.50;0.50;;;7.40;99.90;;;;;;6254645;23;20194;-80
2024/01/01 10:56:09;;;;;;;1.45;1.45;;;7.50;99.90;;;;;;6254776;23;20209;-82
2024/01/01 10:58:45;;;;;;;4.30;1.50;;;7.50;99.90;;;;;;6254643;23;20175;-83
2024/01/01 11:01:15;;;;;;;1.70;1.70;;;7.50;99.90;;;;;;6254191;23;20535;-83
2024/01/01 11:03:46;;;;;;;2.13;2.03;;;7.50;99.90;;;;;;6254854;23;20209;-83
2024/01/01 11:06:29;;;;;;;2.78;2.63;;;7.50;99.90;;;;;;6232974;23;20206;-83
2024/01/01 11:08:58;;;;;;;0.50;0.50;;;7.50;99.90;;;;;;6263053;23;20183;-83
2024/01/01 11:11:31;;;;;;;2.15;2.05;;;7.50;99.90;;;;;;6261068;23;20191;-82
2024/01/01 11:14:00;;;;;;;0.70;0.70;;;7.40;99.90;;;;;;6261988;23;20155;-83
2024/01/01 11:16:49;;;;;;;2.35;2.25;;;7.40;99.90;;;;;;6269423;22;20224;-82
2024/01/01 11:19:38;;;;;;;2.25;2.15;;;7.40;99.90;;;;;;6268269;22;20198;-84
2024/01/01 11:22:20;;;;;;;1.45;1.35;;;7.30;99.90;;;;;;6265926;22;20174;-83
2024/01/01 11:24:48;;;;;;;2.33;2.13;;;7.30;99.90;;;;;;6255970;23;20189;-83
2024/01/01 11:27:23;;;;;;;0.70;0.70;;;7.30;99.90;;;;;;6256498;23;20202;-83
2024/01/01 11:29:51;;;;;;;0.60;0.60;;;7.20;99.90;;;;;;6239440;22;20205;-82
2024/01/01 11:32:18;;;;;;;0.70;0.70;;;7.20;99.90;;;;;;6274983;22;20168;-82
2024/01/01 11:35:08;;;;;;;1.73;1.63;;;7.00;99.90;;;;;;6249365;22;20172;-81
2024/01/01 11:37:36;;;;;;;3.35;3.15;;;6.90;99.90;;;;;;6273601;22;20190;-81
2024/01/01 11:40:05;;;;;;;0.63;0.63;;;6.90;99.90;;;;;;6258245;23;20187;-82
2024/01/01 11:42:33;;;;;;;1.25;1.25;;;6.90;99.90;;;;;;6257405;23;20171;-82
2024/01/01 11:45:09;;;;;;;0.90;0.90;;;6.80;99.90;;;;;;6231152;23;20207;-82
2024/01/01 11:47:38;;;;;;;2.42;2.22;;;6.90;99.90;;;;;;6256454;23;20230;-83
2024/01/01 11:50:07;;;;;;;0.90;0.90;;;6.90;99.90;;;;;;6232107;23;20204;-82
2024/01/01 11:52:34;;;;;;;1.50;1.45;;;6.90;99.90;;;;;;6256340;23;20175;-83
2024/01/01 11:55:01;;;;;;;3.45;2.35;;;6.90;99.90;;;;;;6256517;23;20199;-85
2024/01/01 11:57:29;;;;;;;2.65;2.45;;;6.90;99.90;;;;;;6255673;23;20172;-83
2024/01/01 11:59:56;;;;;;;2.65;2.55;;;7.00;99.90;;;;;;6230733;23;20360;-83
2024/01/01 12:02:23;;;;;;;2.75;2.55;;;7.10;99.90;;;;;;6255986;23;20176;-85
2024/01/01 12:04:54;;;;;;;0.40;0.40;;;7.30;99.90;;;;;;6229997;23;20180;-85
2024/01/01 12:07:33;;;;;;;2.47;2.28;;;7.40;99.90;;;;;;6257794;23;20183;-84
2024/01/01 12:10:10;;;;;;;0.75;0.75;;;7.60;99.90;;;;;;6232715;23;20199;-84
2024/01/01 12:12:39;;;;;;;0.82;0.82;;;7.80;99.90;;;;;;6256707;23;20160;-82
2024/01/01 12:15:11;;;;;;;1.33;1.27;;;7.90;99.90;;;;;;6256576;23;20179;-88
2024/01/01 12:17:47;;;;;;;0.80;0.80;;;8.00;99.90;;;;;;6230587;23;20164;-82
2024/01/01 12:20:17;;;;;;;1.50;1.40;;;8.10;99.90;;;;;;6257757;23;20183;-84
2024/01/01 12:22:44;;;;;;;1.02;1.02;;;8.10;99.90;;;;;;6256004;23;20420;-79
2024/01/01 12:25:16;;;;;;;0.95;0.95;;;8.10;99.90;;;;;;6255751;23;20229;-81
2024/01/01 12:27:44;;;;;;;5.20;4.80;;;8.10;99.90;;;;;;6255628;23;20539;-80
2024/01/01 12:30:32;;;;;;;0.60;0.60;;;8.00;99.90;;;;;;6255114;23;20504;-80
2024/01/01 12:33:00;;;;;;;1.85;1.75;;;8.10;99.90;;;;;;6255786;23;20464;-80
2024/01/01 12:35:27;;;;;;;0.60;0.60;;;8.00;99.90;;;;;;6255580;23;20178;-80
2024/01/01 12:37:55;;;;;;;0.68;0.68;;;8.10;99.90;;;;;;6254814;23;20182;-80
2024/01/01 12:40:23;;;;;;;1.33;1.27;;;8.00;99.90;;;;;;6255330;23;20234;-80
2024/01/01 12:42:50;;;;;;;2.63;1.77;;;8.10;99.90;;;;;;6253071;23;20686;-80
2024/01/01 12:45:19;;;;;;;0.80;0.80;;;8.20;99.90;;;;;;6254354;23;20362;-79
2024/01/01 12:47:47;;;;;;;0.50;0.50;;;8.30;99.90;;;;;;6255412;23;20210;-80
2024/01/01 12:50:14;;;;;;;2.17;2.08;;;8.40;99.90;;;;;;6249961;23;20199;-83
2024/01/01 12:52:41;;;;;;;2.13;2.03;;;8.40;99.90;;;;;;6252449;23;20202;-82
2024/01/01 12:55:09;;;;;;;2.97;2.10;;;8.50;99.90;;;;;;6224933;23;20258;-79
2024/01/01 12:57:37;;;;;;;0.70;0.70;;;8.30;99.90;;;;;;6250692;23;20186;-78
2024/01/01 13:00:06;;;;;;;2.35;2.25;;;8.20;99.90;;;;;;6223867;23;20229;-81
2024/01/01 13:02:33;;;;;;;1.92;1.83;;;8.00;99.90;;;;;;6251228;23;20188;-80